createdAt,value
2023-02-11T00:01:10.361Z,7.10
2023-02-11T00:03:37.181Z,12.03
2023-02-11T00:06:06.455Z,16.02
2023-02-11T00:08:33.076Z,15.40
2023-02-11T00:10:59.605Z,10.57
2023-02-11T00:13:26.358Z,13.20
2023-02-11T00:15:53.719Z,9.80
2023-02-11T00:18:20.757Z,13.93
2023-02-11T00:20:47.336Z,8.20
2023-02-11T00:23:14.132Z,13.75
2023-02-11T00:25:42.430Z,9.15
2023-02-11T00:28:09.827Z,11.43
2023-02-11T00:30:37.036Z,12.80
2023-02-11T00:33:04.309Z,7.47
2023-02-11T00:35:30.846Z,11.20
2023-02-11T00:37:57.457Z,7.53
2023-02-11T00:40:24.651Z,10.40
2023-02-11T00:42:51.248Z,8.38
2023-02-11T00:45:17.846Z,9.52
2023-02-11T00:47:44.367Z,12.18
2023-02-11T00:50:10.893Z,16.63
2023-02-11T00:52:37.492Z,8.53
2023-02-11T00:55:04.287Z,10.70
2023-02-11T00:57:30.859Z,12.48
2023-02-11T00:59:57.368Z,8.25
2023-02-11T01:02:23.985Z,8.27
2023-02-11T01:04:50.530Z,9.90
2023-02-11T01:07:17.112Z,9.20
2023-02-11T01:09:43.630Z,7.15
2023-02-11T01:12:10.210Z,17.70
2023-02-11T01:14:36.761Z,9.73
2023-02-11T01:17:06.322Z,11.93
2023-02-11T01:19:32.942Z,7.72
2023-02-11T01:21:59.805Z,11.45
2023-02-11T01:24:26.571Z,13.57
2023-02-11T01:26:53.074Z,9.00
2023-02-11T01:29:19.690Z,10.00
2023-02-11T01:31:46.347Z,12.75
2023-02-11T01:34:13.108Z,9.82
2023-02-11T01:36:39.689Z,11.00
2023-02-11T01:39:06.258Z,10.55
2023-02-11T01:41:32.755Z,7.77
2023-02-11T01:43:59.390Z,11.13
2023-02-11T01:46:37.882Z,13.68
2023-02-11T01:49:14.898Z,16.70
2023-02-11T01:51:48.078Z,7.63
2023-02-11T01:54:38.505Z,13.60
2023-02-11T01:57:25.266Z,13.25
2023-02-11T02:00:05.184Z,10.73
2023-02-11T02:02:43.370Z,10.90
2023-02-11T02:05:24.927Z,10.88
2023-02-11T02:07:56.372Z,7.83
2023-02-11T02:10:26.236Z,8.05
2023-02-11T02:12:52.865Z,11.65
2023-02-11T02:15:36.774Z,16.05
2023-02-11T02:18:12.538Z,12.65
2023-02-11T02:21:10.240Z,15.27
2023-02-11T02:24:07.389Z,10.40
2023-02-11T02:26:58.527Z,12.35
2023-02-11T02:30:02.743Z,7.60
2023-02-11T02:32:55.358Z,12.77
2023-02-11T02:35:47.633Z,12.90
2023-02-11T02:38:24.852Z,12.43
2023-02-11T02:40:59.422Z,9.95
2023-02-11T02:43:27.779Z,16.95
2023-02-11T02:45:54.434Z,17.63
2023-02-11T02:48:30.144Z,12.67
2023-02-11T02:51:33.643Z,13.23
2023-02-11T02:54:02.756Z,11.00
2023-02-11T02:56:43.436Z,12.45
2023-02-11T02:59:26.234Z,14.70
2023-02-11T03:02:15.198Z,13.20
2023-02-11T03:04:52.854Z,23.00
2023-02-11T03:07:48.923Z,20.00
2023-02-11T03:10:20.813Z,16.48
2023-02-11T03:12:48.720Z,11.40
2023-02-11T03:15:18.170Z,13.83
2023-02-11T03:17:47.881Z,11.80
2023-02-11T03:20:17.532Z,11.85
2023-02-11T03:22:52.895Z,18.02
2023-02-11T03:25:20.775Z,16.67
2023-02-11T03:27:49.352Z,19.17
2023-02-11T03:30:27.112Z,13.13
2023-02-11T03:33:19.987Z,15.85
2023-02-11T03:35:50.775Z,18.88
2023-02-11T03:38:26.340Z,14.13
2023-02-11T03:40:55.890Z,14.07
2023-02-11T03:43:28.246Z,15.50
2023-02-11T03:45:56.877Z,11.60
2023-02-11T03:48:32.240Z,17.45
2023-02-11T03:51:01.653Z,14.90
2023-02-11T03:53:28.598Z,19.20
2023-02-11T03:55:58.598Z,12.98
2023-02-11T03:58:25.168Z,23.60
2023-02-11T04:00:51.710Z,17.10
2023-02-11T04:03:19.149Z,17.55
2023-02-11T04:05:45.692Z,13.83
2023-02-11T04:08:12.192Z,13.55
2023-02-11T04:10:38.727Z,17.05
2023-02-11T04:13:05.251Z,12.23
2023-02-11T04:15:32.173Z,17.23
2023-02-11T04:17:58.675Z,19.87
2023-02-11T04:20:25.199Z,10.95
2023-02-11T04:22:51.702Z,10.02
2023-02-11T04:25:18.365Z,17.70
2023-02-11T04:27:44.920Z,17.10
2023-02-11T04:30:12.125Z,13.23
2023-02-11T04:32:38.690Z,17.10
2023-02-11T04:35:05.902Z,16.35
2023-02-11T04:37:32.451Z,15.05
2023-02-11T04:39:58.971Z,14.18
2023-02-11T04:42:25.459Z,17.50
2023-02-11T04:44:52.023Z,11.77
2023-02-11T04:47:18.788Z,11.15
2023-02-11T04:49:45.393Z,12.77
2023-02-11T04:52:11.923Z,16.85
2023-02-11T04:54:38.508Z,17.17
2023-02-11T04:57:05.011Z,24.98
2023-02-11T04:59:31.512Z,16.23
2023-02-11T05:01:58.173Z,17.30
2023-02-11T05:04:24.966Z,16.77
2023-02-11T05:06:51.498Z,17.43
2023-02-11T05:09:18.308Z,17.23
2023-02-11T05:11:44.891Z,13.90
2023-02-11T05:14:11.438Z,25.77
2023-02-11T05:16:38.075Z,15.55
2023-02-11T05:19:04.896Z,19.37
2023-02-11T05:21:31.553Z,14.00
2023-02-11T05:23:58.227Z,24.42
2023-02-11T05:26:25.180Z,25.58
2023-02-11T05:28:51.700Z,18.60
2023-02-11T05:31:18.543Z,19.30
2023-02-11T05:33:45.224Z,16.75
2023-02-11T05:36:13.962Z,17.33
2023-02-11T05:38:42.637Z,15.30
2023-02-11T05:41:10.408Z,22.65
2023-02-11T05:43:37.042Z,16.87
2023-02-11T05:46:04.776Z,19.42
2023-02-11T05:48:31.830Z,22.65
2023-02-11T05:50:58.492Z,19.95
2023-02-11T05:53:25.316Z,21.63
2023-02-11T05:55:52.107Z,23.33
2023-02-11T05:58:18.853Z,18.33
2023-02-11T06:00:45.387Z,19.02
2023-02-11T06:03:12.012Z,18.75
2023-02-11T06:05:38.900Z,16.88
2023-02-11T06:08:05.571Z,17.43
2023-02-11T06:10:32.140Z,15.23
2023-02-11T06:12:58.634Z,17.95
2023-02-11T06:15:25.257Z,23.38
2023-02-11T06:17:52.173Z,24.60
2023-02-11T06:20:19.383Z,22.17
2023-02-11T06:22:46.280Z,22.13
2023-02-11T06:25:13.882Z,24.90
2023-02-11T06:27:40.442Z,29.35
2023-02-11T06:30:08.149Z,23.08
2023-02-11T06:32:50.067Z,24.90
2023-02-11T06:35:16.828Z,26.10
2023-02-11T06:37:43.506Z,24.17
2023-02-11T06:40:11.529Z,27.05
2023-02-11T06:42:41.059Z,25.98
2023-02-11T06:45:10.833Z,29.03
2023-02-11T06:47:38.000Z,29.80
2023-02-11T06:50:05.163Z,25.10
2023-02-11T06:52:32.711Z,24.88
2023-02-11T06:54:59.323Z,35.17
2023-02-11T06:57:25.921Z,32.73
2023-02-11T06:59:52.434Z,31.67
2023-02-11T07:02:20.911Z,22.50
2023-02-11T07:04:47.847Z,34.97
2023-02-11T07:07:14.494Z,26.52
2023-02-11T07:09:41.103Z,27.70
2023-02-11T07:12:10.336Z,30.20
2023-02-11T07:14:36.907Z,30.95
2023-02-11T07:17:04.828Z,27.98
2023-02-11T07:19:31.804Z,29.25
2023-02-11T07:21:58.342Z,27.80
2023-02-11T07:24:25.150Z,27.38
2023-02-11T07:26:52.953Z,24.58
2023-02-11T07:29:19.438Z,26.50
2023-02-11T07:31:46.062Z,27.92
2023-02-11T07:34:12.731Z,32.80
2023-02-11T07:36:39.447Z,31.52
2023-02-11T07:39:05.979Z,29.63
2023-02-11T07:41:32.543Z,30.48
2023-02-11T07:43:59.044Z,30.75
2023-02-11T07:46:27.799Z,27.17
2023-02-11T07:48:55.028Z,26.50
2023-02-11T07:51:24.481Z,30.95
2023-02-11T07:53:52.154Z,27.05
2023-02-11T07:56:20.184Z,24.73
2023-02-11T07:58:47.215Z,32.03
2023-02-11T08:01:24.967Z,33.10
2023-02-11T08:03:51.972Z,25.20
2023-02-11T08:06:20.669Z,25.80
2023-02-11T08:08:47.607Z,23.10
2023-02-11T08:11:20.427Z,26.17
2023-02-11T08:13:47.195Z,32.03
2023-02-11T08:16:21.459Z,26.58
2023-02-11T08:18:49.207Z,31.13
2023-02-11T08:21:15.823Z,31.65
2023-02-11T08:23:43.832Z,31.33
2023-02-11T08:26:13.802Z,30.40
2023-02-11T08:28:41.970Z,26.83
2023-02-11T08:31:11.240Z,28.35
2023-02-11T08:33:40.324Z,35.25
2023-02-11T08:36:29.782Z,29.37
2023-02-11T08:39:12.126Z,26.77
2023-02-11T08:41:43.026Z,28.95
2023-02-11T08:44:09.723Z,28.38
2023-02-11T08:46:36.272Z,27.63
2023-02-11T08:49:02.800Z,31.53
2023-02-11T08:51:33.065Z,28.15
2023-02-11T08:54:00.486Z,31.25
2023-02-11T08:56:27.715Z,28.27
2023-02-11T08:58:55.008Z,31.42
2023-02-11T09:01:27.728Z,28.13
2023-02-11T09:03:55.251Z,29.05
2023-02-11T09:06:26.067Z,27.17
2023-02-11T09:08:54.925Z,30.35
2023-02-11T09:11:27.774Z,35.30
2023-02-11T09:13:54.691Z,31.00
2023-02-11T09:16:23.953Z,34.85
2023-02-11T09:18:51.037Z,34.08
2023-02-11T09:21:19.149Z,31.23
2023-02-11T09:23:47.849Z,32.45
2023-02-11T09:26:18.787Z,28.07
2023-02-11T09:28:45.606Z,34.33
2023-02-11T09:31:18.870Z,34.15
2023-02-11T09:33:48.061Z,29.35
2023-02-11T09:36:25.648Z,28.95
2023-02-11T09:38:53.532Z,30.13
2023-02-11T09:41:35.460Z,32.35
2023-02-11T09:44:05.967Z,33.00
2023-02-11T09:46:36.567Z,27.50
2023-02-11T09:49:05.062Z,27.33
2023-02-11T09:51:44.871Z,25.57
2023-02-11T09:54:18.504Z,27.80
2023-02-11T09:56:45.040Z,31.00
2023-02-11T09:59:16.086Z,32.95
2023-02-11T10:02:05.209Z,29.00
2023-02-11T10:05:03.776Z,31.80
2023-02-11T10:07:46.462Z,25.05
2023-02-11T10:10:31.506Z,30.73
2023-02-11T10:13:12.660Z,23.08
2023-02-11T10:15:57.619Z,24.67
2023-02-11T10:18:30.007Z,24.57
2023-02-11T10:21:32.785Z,27.80
2023-02-11T10:24:03.476Z,27.80
2023-02-11T10:26:33.236Z,33.95
2023-02-11T10:29:05.579Z,19.65
2023-02-11T10:31:42.428Z,25.77
2023-02-11T10:34:14.835Z,21.60
2023-02-11T10:36:43.634Z,21.75
2023-02-11T10:39:15.288Z,27.25
2023-02-11T10:41:52.390Z,23.13
2023-02-11T10:44:27.795Z,21.47
2023-02-11T10:46:56.359Z,21.58
2023-02-11T10:49:46.336Z,19.67
2023-02-11T10:52:24.977Z,23.67
2023-02-11T10:55:09.871Z,23.77
2023-02-11T10:57:44.552Z,22.33
2023-02-11T11:00:26.350Z,19.42
2023-02-11T11:02:57.369Z,21.42
2023-02-11T11:05:30.476Z,19.65
2023-02-11T11:08:00.008Z,23.63
2023-02-11T11:10:47.097Z,18.97
2023-02-11T11:13:25.673Z,17.58
2023-02-11T11:16:14.345Z,20.52
2023-02-11T11:18:46.040Z,25.40
2023-02-11T11:21:14.491Z,22.77
2023-02-11T11:23:47.997Z,19.40
2023-02-11T11:26:16.890Z,20.10
2023-02-11T11:28:51.210Z,21.17
2023-02-11T11:31:22.893Z,23.08
2023-02-11T11:33:52.163Z,19.77
2023-02-11T11:36:25.712Z,19.30
2023-02-11T11:38:57.509Z,17.23
2023-02-11T11:41:28.357Z,17.70
2023-02-11T11:44:01.961Z,18.35
2023-02-11T11:46:35.451Z,16.60
2023-02-11T11:49:22.209Z,21.00
2023-02-11T11:52:14.849Z,23.83
2023-02-11T11:54:46.285Z,19.67
2023-02-11T11:57:17.807Z,17.48
2023-02-11T11:59:44.756Z,20.23
2023-02-11T12:02:35.469Z,17.87
2023-02-11T12:05:13.760Z,21.42
2023-02-11T12:07:55.668Z,18.02
2023-02-11T12:10:42.646Z,16.58
2023-02-11T12:13:28.246Z,19.95
2023-02-11T12:16:03.568Z,16.87
2023-02-11T12:18:59.377Z,16.75
2023-02-11T12:21:33.543Z,18.75
2023-02-11T12:24:18.184Z,17.75
2023-02-11T12:26:53.312Z,16.92
2023-02-11T12:29:19.775Z,19.70
2023-02-11T12:32:04.540Z,19.02
2023-02-11T12:34:55.113Z,24.38
2023-02-11T12:37:27.941Z,21.13
2023-02-11T12:40:17.706Z,15.15
2023-02-11T12:43:08.785Z,18.67
2023-02-11T12:45:55.504Z,18.40
2023-02-11T12:48:42.224Z,19.42
2023-02-11T12:51:34.765Z,18.92
2023-02-11T12:54:07.363Z,18.45
2023-02-11T12:57:02.120Z,15.17
2023-02-11T12:59:39.328Z,17.75
2023-02-11T13:02:18.898Z,15.25
2023-02-11T13:04:52.594Z,17.73
2023-02-11T13:07:29.245Z,18.40
2023-02-11T13:10:07.681Z,16.17
2023-02-11T13:12:56.077Z,17.40
2023-02-11T13:15:23.916Z,15.85
2023-02-11T13:18:01.134Z,16.77
2023-02-11T13:20:44.238Z,17.70
2023-02-11T13:23:17.470Z,17.13
2023-02-11T13:25:51.629Z,17.95
2023-02-11T13:28:30.656Z,18.40
2023-02-11T13:31:03.067Z,19.23
2023-02-11T13:33:39.519Z,17.52
2023-02-11T13:36:05.993Z,17.17
2023-02-11T13:38:33.589Z,18.83
2023-02-11T13:41:00.109Z,18.92
2023-02-11T13:43:33.463Z,14.98
2023-02-11T13:46:11.794Z,17.73
2023-02-11T13:48:46.128Z,17.30
2023-02-11T13:51:16.405Z,16.77
2023-02-11T13:53:56.179Z,18.20
2023-02-11T13:56:36.819Z,16.63
2023-02-11T13:59:26.408Z,20.10
2023-02-11T14:02:39.042Z,15.40
2023-02-11T14:05:23.997Z,16.65
2023-02-11T14:08:36.327Z,18.80
2023-02-11T14:11:25.271Z,19.63
2023-02-11T14:13:51.711Z,16.58
2023-02-11T14:16:37.024Z,22.80
2023-02-11T14:19:06.404Z,16.98
2023-02-11T14:21:38.768Z,18.98
2023-02-11T14:24:07.055Z,22.27
2023-02-11T14:26:41.325Z,24.70
2023-02-11T14:29:31.558Z,22.17
2023-02-11T14:32:07.202Z,18.27
2023-02-11T14:34:49.098Z,21.23
2023-02-11T14:37:26.978Z,21.55
2023-02-11T14:40:19.438Z,19.00
2023-02-11T14:42:46.128Z,19.97
2023-02-11T14:45:20.982Z,23.33
2023-02-11T14:48:08.960Z,18.63
2023-02-11T14:50:49.732Z,28.85
2023-02-11T14:53:19.575Z,42.47
2023-02-11T14:55:50.867Z,50.73
2023-02-11T14:58:23.384Z,40.97
2023-02-11T15:00:51.165Z,53.83
2023-02-11T15:03:27.168Z,32.05
2023-02-11T15:06:15.094Z,18.35
2023-02-11T15:08:45.821Z,20.83
2023-02-11T15:11:15.663Z,16.35
2023-02-11T15:13:47.605Z,16.80
2023-02-11T15:16:19.417Z,18.75
2023-02-11T15:18:51.747Z,21.65
2023-02-11T15:21:24.510Z,17.90
2023-02-11T15:24:01.561Z,18.63
2023-02-11T15:26:28.880Z,21.67
2023-02-11T15:28:56.065Z,26.65
2023-02-11T15:31:25.789Z,26.63
2023-02-11T15:33:53.408Z,36.70
2023-02-11T15:36:28.693Z,26.08
2023-02-11T15:39:31.390Z,22.38
2023-02-11T15:42:50.666Z,25.50
2023-02-11T15:45:25.946Z,21.58
2023-02-11T15:47:54.762Z,19.02
2023-02-11T15:50:31.940Z,21.05
2023-02-11T15:53:03.158Z,18.08
2023-02-11T15:55:30.300Z,20.57
2023-02-11T15:58:05.067Z,16.55
2023-02-11T16:00:36.737Z,23.00
2023-02-11T16:03:03.531Z,18.67
2023-02-11T16:05:35.580Z,20.20
2023-02-11T16:08:24.528Z,21.60
2023-02-11T16:11:02.487Z,24.90
2023-02-11T16:13:34.974Z,18.15
2023-02-11T16:16:04.747Z,16.90
2023-02-11T16:18:39.856Z,20.13
2023-02-11T16:21:18.048Z,15.67
2023-02-11T16:23:53.043Z,21.48
2023-02-11T16:26:36.611Z,20.75
2023-02-11T16:29:10.841Z,17.73
2023-02-11T16:31:40.504Z,18.38
2023-02-11T16:34:15.919Z,18.83
2023-02-11T16:36:42.794Z,21.98
2023-02-11T16:39:10.993Z,17.85
2023-02-11T16:41:37.511Z,20.10
2023-02-11T16:44:04.124Z,17.15
2023-02-11T16:46:31.517Z,17.73
2023-02-11T16:49:09.416Z,19.35
2023-02-11T16:51:39.923Z,19.35
2023-02-11T16:54:06.457Z,16.17
2023-02-11T16:56:32.985Z,15.73
2023-02-11T16:58:59.559Z,21.23
2023-02-11T17:01:26.262Z,18.45
2023-02-11T17:03:54.008Z,19.88
2023-02-11T17:06:20.496Z,17.75
2023-02-11T17:08:46.974Z,19.60
2023-02-11T17:11:16.735Z,17.83
2023-02-11T17:13:44.096Z,19.75
2023-02-11T17:16:17.935Z,17.92
2023-02-11T17:18:45.034Z,30.38
2023-02-11T17:21:11.592Z,32.30
2023-02-11T17:23:38.736Z,33.77
2023-02-11T17:26:05.842Z,21.83
2023-02-11T17:28:32.672Z,18.60
2023-02-11T17:31:00.360Z,20.52
2023-02-11T17:33:27.132Z,20.27
2023-02-11T17:35:55.703Z,16.77
2023-02-11T17:38:22.254Z,17.75
2023-02-11T17:40:57.304Z,19.90
2023-02-11T17:43:23.805Z,18.73
2023-02-11T17:45:50.748Z,20.35
2023-02-11T17:48:17.584Z,17.60
2023-02-11T17:50:44.311Z,18.48
2023-02-11T17:53:10.872Z,14.43
2023-02-11T17:55:38.586Z,18.67
2023-02-11T17:58:05.101Z,13.57
2023-02-11T18:00:31.603Z,23.50
2023-02-11T18:03:02.763Z,21.60
2023-02-11T18:05:34.858Z,18.35
2023-02-11T18:08:01.518Z,20.92
2023-02-11T18:10:28.101Z,19.58
2023-02-11T18:12:56.858Z,22.03
2023-02-11T18:15:23.512Z,15.07
2023-02-11T18:17:50.232Z,21.40
2023-02-11T18:20:16.992Z,16.83
2023-02-11T18:22:44.353Z,20.58
2023-02-11T18:25:15.241Z,73.63
2023-02-11T18:27:41.937Z,42.95
2023-02-11T18:30:14.168Z,50.13
2023-02-11T18:32:40.758Z,48.72
2023-02-11T18:35:14.847Z,24.95
2023-02-11T18:37:42.575Z,26.20
2023-02-11T18:40:10.803Z,23.60
2023-02-11T18:42:38.046Z,23.17
2023-02-11T18:45:11.797Z,21.48
2023-02-11T18:47:39.348Z,19.05
2023-02-11T18:50:08.290Z,18.60
2023-02-11T18:52:38.509Z,21.87
2023-02-11T18:55:09.164Z,19.88
2023-02-11T18:57:35.690Z,17.98
2023-02-11T19:00:02.304Z,15.60
2023-02-11T19:02:29.382Z,17.08
2023-02-11T19:04:55.897Z,16.67
2023-02-11T19:07:22.435Z,18.33
2023-02-11T19:09:49.099Z,17.58
2023-02-11T19:12:15.665Z,15.27
2023-02-11T19:14:42.304Z,20.25
2023-02-11T19:17:11.835Z,16.35
2023-02-11T19:19:38.503Z,18.58
2023-02-11T19:22:10.525Z,15.07
2023-02-11T19:24:37.981Z,13.55
2023-02-11T19:27:05.450Z,14.27
2023-02-11T19:29:35.088Z,15.82
2023-02-11T19:32:06.303Z,14.90
2023-02-11T19:34:33.286Z,13.90
2023-02-11T19:37:01.619Z,11.35
2023-02-11T19:39:28.306Z,14.88
2023-02-11T19:41:54.876Z,11.75
2023-02-11T19:44:21.580Z,10.88
2023-02-11T19:46:50.242Z,15.85
2023-02-11T19:49:22.802Z,25.27
2023-02-11T19:51:50.733Z,15.73
2023-02-11T19:54:17.338Z,12.20
2023-02-11T19:56:45.310Z,17.17
2023-02-11T19:59:13.813Z,27.17
2023-02-11T20:01:41.112Z,19.10
2023-02-11T20:04:08.528Z,14.07
2023-02-11T20:06:35.455Z,16.52
2023-02-11T20:09:06.107Z,15.38
2023-02-11T20:11:33.656Z,12.85
2023-02-11T20:14:00.888Z,14.90
2023-02-11T20:16:46.179Z,18.48
2023-02-11T20:19:17.856Z,11.77
2023-02-11T20:21:47.056Z,13.88
2023-02-11T20:24:14.535Z,11.27
2023-02-11T20:26:42.532Z,11.88
2023-02-11T20:29:09.889Z,10.60
2023-02-11T20:31:37.039Z,16.20
2023-02-11T20:34:03.803Z,9.43
2023-02-11T20:36:34.121Z,11.88
2023-02-11T20:39:01.825Z,11.90
2023-02-11T20:41:34.267Z,11.88
2023-02-11T20:44:03.670Z,11.40
2023-02-11T20:46:33.071Z,11.30
2023-02-11T20:49:00.613Z,12.65
2023-02-11T20:51:29.832Z,10.25
2023-02-11T20:53:56.833Z,11.35
2023-02-11T20:56:29.778Z,12.57
2023-02-11T20:59:01.067Z,13.27
2023-02-11T21:01:43.895Z,11.30
2023-02-11T21:04:17.105Z,12.25
2023-02-11T21:06:47.326Z,11.07
2023-02-11T21:09:17.388Z,12.10
2023-02-11T21:11:43.980Z,12.05
2023-02-11T21:14:12.030Z,11.50
2023-02-11T21:16:39.763Z,17.63
2023-02-11T21:19:07.023Z,18.65
2023-02-11T21:21:36.663Z,9.55
2023-02-11T21:24:04.195Z,11.07
2023-02-11T21:26:30.904Z,10.93
2023-02-11T21:28:57.464Z,11.25
2023-02-11T21:31:29.691Z,9.13
2023-02-11T21:33:59.433Z,9.77
2023-02-11T21:36:27.873Z,9.55
2023-02-11T21:38:54.382Z,7.68
2023-02-11T21:41:22.612Z,8.75
2023-02-11T21:43:50.472Z,8.57
2023-02-11T21:46:18.124Z,7.72
2023-02-11T21:48:44.744Z,8.88
2023-02-11T21:51:20.900Z,7.38
2023-02-11T21:53:47.483Z,8.45
2023-02-11T21:56:18.521Z,8.85
2023-02-11T21:58:45.860Z,7.80
2023-02-11T22:01:15.303Z,8.98
2023-02-11T22:03:42.563Z,8.60
2023-02-11T22:06:11.648Z,15.57
2023-02-11T22:08:38.438Z,9.82
2023-02-11T22:11:07.671Z,8.13
2023-02-11T22:13:34.596Z,10.63
2023-02-11T22:16:04.183Z,8.20
2023-02-11T22:18:30.870Z,9.00
2023-02-11T22:21:02.857Z,10.85
2023-02-11T22:23:30.351Z,9.27
2023-02-11T22:25:57.694Z,9.23
2023-02-11T22:28:26.059Z,8.13
2023-02-11T22:30:57.057Z,8.85
2023-02-11T22:33:25.078Z,6.35
2023-02-11T22:36:07.178Z,6.22
2023-02-11T22:38:34.981Z,6.70
2023-02-11T22:41:06.716Z,6.80
2023-02-11T22:43:33.569Z,7.15
2023-02-11T22:46:01.953Z,7.28
2023-02-11T22:48:28.631Z,12.40
2023-02-11T22:50:55.377Z,6.95
2023-02-11T22:53:25.467Z,6.15
2023-02-11T22:55:52.163Z,7.20
2023-02-11T22:58:18.887Z,7.93
2023-02-11T23:00:45.508Z,6.97
2023-02-11T23:03:12.842Z,6.13
2023-02-11T23:05:40.718Z,6.38
2023-02-11T23:08:11.528Z,8.23
2023-02-11T23:10:39.731Z,10.32
2023-02-11T23:13:07.761Z,8.05
2023-02-11T23:15:34.424Z,7.10
2023-02-11T23:18:00.998Z,10.75
2023-02-11T23:20:27.607Z,8.57
2023-02-11T23:22:54.161Z,8.02
2023-02-11T23:25:20.685Z,7.70
2023-02-11T23:27:47.207Z,9.32
2023-02-11T23:30:14.304Z,8.40
2023-02-11T23:32:40.935Z,9.93
2023-02-11T23:35:07.742Z,8.07
2023-02-11T23:37:34.402Z,8.52
2023-02-11T23:40:00.927Z,8.95
2023-02-11T23:42:28.770Z,9.02
2023-02-11T23:44:55.346Z,7.95
2023-02-11T23:47:21.868Z,8.07
2023-02-11T23:49:48.420Z,9.38
2023-02-11T23:52:15.115Z,6.78
2023-02-11T23:54:43.338Z,7.85
2023-02-11T23:57:09.884Z,9.63
2023-02-11T23:59:36.352Z,7.80
